sensor_id;sensor_type;location;lat;lon;timestamp;P1;durP1;ratioP1;P2;durP2;ratioP2
6249;SDS011;3158;52.148;11.568;2023-08-30T00:02:34;0.63;;;0.63;;
6249;SDS011;3158;52.148;11.568;2023-08-30T00:07:37;0.70;;;0.70;;
6249;SDS011;3158;52.148;11.568;2023-08-30T00:12:38;0.57;;;0.57;;
6249;SDS011;3158;52.148;11.568;2023-08-30T00:17:39;0.50;;;0.50;;
6249;SDS011;3158;52.148;11.568;2023-08-30T00:22:40;0.60;;;0.55;;
6249;SDS011;3158;52.148;11.568;2023-08-30T00:27:41;0.80;;;0.80;;
6249;SDS011;3158;52.148;11.568;2023-08-30T00:32:42;0.60;;;0.60;;
6249;SDS011;3158;52.148;11.568;2023-08-30T00:37:44;0.60;;;0.60;;
6249;SDS011;3158;52.148;11.568;2023-08-30T00:42:46;0.80;;;0.80;;
6249;SDS011;3158;52.148;11.568;2023-08-30T00:47:47;0.77;;;0.77;;
6249;SDS011;3158;52.148;11.568;2023-08-30T00:52:48;0.70;;;0.70;;
6249;SDS011;3158;52.148;11.568;2023-08-30T00:57:50;0.85;;;0.85;;
6249;SDS011;3158;52.148;11.568;2023-08-30T01:02:51;1.00;;;0.60;;
6249;SDS011;3158;52.148;11.568;2023-08-30T01:07:52;2.97;;;0.70;;
6249;SDS011;3158;52.148;11.568;2023-08-30T01:12:56;0.80;;;0.80;;
6249;SDS011;3158;52.148;11.568;2023-08-30T01:17:59;0.75;;;0.75;;
6249;SDS011;3158;52.148;11.568;2023-08-30T01:23:08;0.68;;;0.68;;
6249;SDS011;3158;52.148;11.568;2023-08-30T01:28:18;1.55;;;0.85;;
6249;SDS011;3158;52.148;11.568;2023-08-30T01:33:20;1.48;;;0.68;;
6249;SDS011;3158;52.148;11.568;2023-08-30T01:38:21;0.85;;;0.85;;
6249;SDS011;3158;52.148;11.568;2023-08-30T01:43:25;0.82;;;0.82;;
6249;SDS011;3158;52.148;11.568;2023-08-30T01:48:27;2.15;;;1.20;;
6249;SDS011;3158;52.148;11.568;2023-08-30T01:53:28;0.73;;;0.73;;
6249;SDS011;3158;52.148;11.568;2023-08-30T01:58:29;1.13;;;1.13;;
6249;SDS011;3158;52.148;11.568;2023-08-30T02:03:30;0.90;;;0.90;;
6249;SDS011;3158;52.148;11.568;2023-08-30T02:08:41;1.00;;;1.00;;
6249;SDS011;3158;52.148;11.568;2023-08-30T02:13:45;1.42;;;1.33;;
6249;SDS011;3158;52.148;11.568;2023-08-30T02:18:47;1.05;;;0.98;;
6249;SDS011;3158;52.148;11.568;2023-08-30T02:23:51;1.15;;;1.15;;
6249;SDS011;3158;52.148;11.568;2023-08-30T02:28:52;0.70;;;0.70;;
6249;SDS011;3158;52.148;11.568;2023-08-30T02:33:53;1.27;;;1.27;;
6249;SDS011;3158;52.148;11.568;2023-08-30T02:38:54;1.17;;;1.08;;
6249;SDS011;3158;52.148;11.568;2023-08-30T02:43:55;1.13;;;1.13;;
6249;SDS011;3158;52.148;11.568;2023-08-30T02:48:56;0.77;;;0.77;;
6249;SDS011;3158;52.148;11.568;2023-08-30T02:53:57;1.10;;;1.10;;
6249;SDS011;3158;52.148;11.568;2023-08-30T02:58:58;0.85;;;0.85;;
6249;SDS011;3158;52.148;11.568;2023-08-30T03:04:00;1.10;;;1.10;;
6249;SDS011;3158;52.148;11.568;2023-08-30T03:09:01;1.35;;;1.20;;
6249;SDS011;3158;52.148;11.568;2023-08-30T03:14:04;1.23;;;1.23;;
6249;SDS011;3158;52.148;11.568;2023-08-30T03:19:05;1.40;;;1.30;;
6249;SDS011;3158;52.148;11.568;2023-08-30T03:24:07;1.38;;;1.27;;
6249;SDS011;3158;52.148;11.568;2023-08-30T03:29:09;0.85;;;0.85;;
6249;SDS011;3158;52.148;11.568;2023-08-30T03:34:10;1.48;;;0.82;;
6249;SDS011;3158;52.148;11.568;2023-08-30T03:39:11;2.15;;;1.10;;
6249;SDS011;3158;52.148;11.568;2023-08-30T03:44:13;1.10;;;1.10;;
6249;SDS011;3158;52.148;11.568;2023-08-30T03:49:14;0.88;;;0.88;;
6249;SDS011;3158;52.148;11.568;2023-08-30T03:54:15;1.00;;;1.00;;
6249;SDS011;3158;52.148;11.568;2023-08-30T03:59:19;1.00;;;1.00;;
6249;SDS011;3158;52.148;11.568;2023-08-30T04:04:22;1.40;;;1.30;;
6249;SDS011;3158;52.148;11.568;2023-08-30T04:09:24;1.30;;;1.30;;
6249;SDS011;3158;52.148;11.568;2023-08-30T04:14:25;1.20;;;1.20;;
6249;SDS011;3158;52.148;11.568;2023-08-30T04:19:26;6.07;;;1.08;;
6249;SDS011;3158;52.148;11.568;2023-08-30T04:24:27;1.08;;;1.08;;
6249;SDS011;3158;52.148;11.568;2023-08-30T04:29:29;1.02;;;1.02;;
6249;SDS011;3158;52.148;11.568;2023-08-30T04:34:30;1.20;;;1.20;;
6249;SDS011;3158;52.148;11.568;2023-08-30T04:39:31;1.20;;;1.20;;
6249;SDS011;3158;52.148;11.568;2023-08-30T04:44:32;1.30;;;1.20;;
6249;SDS011;3158;52.148;11.568;2023-08-30T04:49:34;1.10;;;1.10;;
6249;SDS011;3158;52.148;11.568;2023-08-30T04:54:36;1.02;;;1.02;;
6249;SDS011;3158;52.148;11.568;2023-08-30T04:59:37;2.35;;;1.20;;
6249;SDS011;3158;52.148;11.568;2023-08-30T05:04:40;2.35;;;1.40;;
6249;SDS011;3158;52.148;11.568;2023-08-30T05:09:41;0.88;;;0.82;;
6249;SDS011;3158;52.148;11.568;2023-08-30T05:14:43;1.60;;;1.05;;
6249;SDS011;3158;52.148;11.568;2023-08-30T05:19:44;4.10;;;1.58;;
6249;SDS011;3158;52.148;11.568;2023-08-30T05:24:45;2.63;;;1.48;;
6249;SDS011;3158;52.148;11.568;2023-08-30T05:29:47;1.67;;;1.58;;
6249;SDS011;3158;52.148;11.568;2023-08-30T05:34:48;1.48;;;1.38;;
6249;SDS011;3158;52.148;11.568;2023-08-30T05:40:10;0.90;;;0.90;;
6249;SDS011;3158;52.148;11.568;2023-08-30T05:45:15;1.20;;;1.20;;
6249;SDS011;3158;52.148;11.568;2023-08-30T05:50:16;1.60;;;1.50;;
6249;SDS011;3158;52.148;11.568;2023-08-30T05:55:18;1.85;;;1.75;;
6249;SDS011;3158;52.148;11.568;2023-08-30T06:00:19;1.23;;;1.23;;
6249;SDS011;3158;52.148;11.568;2023-08-30T06:05:20;2.47;;;2.30;;
6249;SDS011;3158;52.148;11.568;2023-08-30T06:10:21;3.35;;;2.08;;
6249;SDS011;3158;52.148;11.568;2023-08-30T06:15:23;2.15;;;2.05;;
6249;SDS011;3158;52.148;11.568;2023-08-30T06:20:24;2.78;;;2.38;;
6249;SDS011;3158;52.148;11.568;2023-08-30T06:25:25;3.00;;;2.80;;
6249;SDS011;3158;52.148;11.568;2023-08-30T06:30:27;8.52;;;3.13;;
6249;SDS011;3158;52.148;11.568;2023-08-30T06:35:29;3.13;;;2.88;;
6249;SDS011;3158;52.148;11.568;2023-08-30T06:40:30;2.15;;;2.15;;
6249;SDS011;3158;52.148;11.568;2023-08-30T06:45:31;3.05;;;2.72;;
6249;SDS011;3158;52.148;11.568;2023-08-30T06:50:33;3.38;;;2.50;;
6249;SDS011;3158;52.148;11.568;2023-08-30T06:55:34;2.03;;;2.00;;
6249;SDS011;3158;52.148;11.568;2023-08-30T07:00:36;2.38;;;2.20;;
6249;SDS011;3158;52.148;11.568;2023-08-30T07:05:38;1.65;;;1.52;;
6249;SDS011;3158;52.148;11.568;2023-08-30T07:10:39;2.20;;;1.60;;
6249;SDS011;3158;52.148;11.568;2023-08-30T07:15:40;1.67;;;1.58;;
6249;SDS011;3158;52.148;11.568;2023-08-30T07:20:41;2.25;;;1.48;;
6249;SDS011;3158;52.148;11.568;2023-08-30T07:25:42;2.28;;;1.45;;
6249;SDS011;3158;52.148;11.568;2023-08-30T07:30:43;2.25;;;1.52;;
6249;SDS011;3158;52.148;11.568;2023-08-30T07:35:45;1.23;;;1.23;;
6249;SDS011;3158;52.148;11.568;2023-08-30T07:40:46;2.15;;;1.00;;
6249;SDS011;3158;52.148;11.568;2023-08-30T07:45:47;0.90;;;0.90;;
6249;SDS011;3158;52.148;11.568;2023-08-30T07:50:48;2.05;;;0.73;;
6249;SDS011;3158;52.148;11.568;2023-08-30T07:55:49;2.47;;;0.70;;
6249;SDS011;3158;52.148;11.568;2023-08-30T08:00:51;3.42;;;1.08;;
6249;SDS011;3158;52.148;11.568;2023-08-30T08:05:52;0.52;;;0.50;;
6249;SDS011;3158;52.148;11.568;2023-08-30T08:10:54;1.42;;;0.60;;
6249;SDS011;3158;52.148;11.568;2023-08-30T08:15:55;0.55;;;0.50;;
6249;SDS011;3158;52.148;11.568;2023-08-30T08:20:57;0.30;;;0.30;;
6249;SDS011;3158;52.148;11.568;2023-08-30T08:26:00;0.65;;;0.60;;
6249;SDS011;3158;52.148;11.568;2023-08-30T08:31:02;0.50;;;0.50;;
6249;SDS011;3158;52.148;11.568;2023-08-30T08:36:03;0.40;;;0.40;;
6249;SDS011;3158;52.148;11.568;2023-08-30T08:41:05;0.40;;;0.40;;
6249;SDS011;3158;52.148;11.568;2023-08-30T08:46:06;0.50;;;0.50;;
6249;SDS011;3158;52.148;11.568;2023-08-30T08:51:10;0.40;;;0.40;;
6249;SDS011;3158;52.148;11.568;2023-08-30T08:56:11;1.30;;;0.40;;
6249;SDS011;3158;52.148;11.568;2023-08-30T09:01:13;0.55;;;0.55;;
6249;SDS011;3158;52.148;11.568;2023-08-30T09:06:14;0.50;;;0.50;;
6249;SDS011;3158;52.148;11.568;2023-08-30T09:11:16;1.05;;;0.70;;
6249;SDS011;3158;52.148;11.568;2023-08-30T09:16:17;0.70;;;0.70;;
6249;SDS011;3158;52.148;11.568;2023-08-30T09:21:18;0.75;;;0.75;;
6249;SDS011;3158;52.148;11.568;2023-08-30T09:26:20;0.65;;;0.60;;
6249;SDS011;3158;52.148;11.568;2023-08-30T09:31:21;0.60;;;0.60;;
6249;SDS011;3158;52.148;11.568;2023-08-30T09:36:22;2.17;;;0.60;;
6249;SDS011;3158;52.148;11.568;2023-08-30T09:41:24;0.50;;;0.50;;
6249;SDS011;3158;52.148;11.568;2023-08-30T09:46:25;0.50;;;0.50;;
6249;SDS011;3158;52.148;11.568;2023-08-30T09:51:26;0.52;;;0.52;;
6249;SDS011;3158;52.148;11.568;2023-08-30T09:56:28;1.95;;;0.80;;
6249;SDS011;3158;52.148;11.568;2023-08-30T10:01:29;0.35;;;0.30;;
6249;SDS011;3158;52.148;11.568;2023-08-30T10:06:30;0.30;;;0.30;;
6249;SDS011;3158;52.148;11.568;2023-08-30T10:11:32;1.00;;;0.38;;
6249;SDS011;3158;52.148;11.568;2023-08-30T10:16:39;2.10;;;0.28;;
6249;SDS011;3158;52.148;11.568;2023-08-30T10:21:45;0.40;;;0.40;;
6249;SDS011;3158;52.148;11.568;2023-08-30T10:26:48;0.28;;;0.22;;
6249;SDS011;3158;52.148;11.568;2023-08-30T10:31:49;0.30;;;0.30;;
6249;SDS011;3158;52.148;11.568;2023-08-30T10:36:56;0.20;;;0.20;;
6249;SDS011;3158;52.148;11.568;2023-08-30T10:41:57;1.05;;;0.30;;
6249;SDS011;3158;52.148;11.568;2023-08-30T10:47:01;0.30;;;0.30;;
6249;SDS011;3158;52.148;11.568;2023-08-30T10:52:02;0.25;;;0.25;;
6249;SDS011;3158;52.148;11.568;2023-08-30T10:57:04;0.45;;;0.30;;
6249;SDS011;3158;52.148;11.568;2023-08-30T11:02:05;0.30;;;0.30;;
6249;SDS011;3158;52.148;11.568;2023-08-30T11:07:07;1.23;;;0.30;;
6249;SDS011;3158;52.148;11.568;2023-08-30T11:12:08;0.30;;;0.30;;
6249;SDS011;3158;52.148;11.568;2023-08-30T11:17:10;0.32;;;0.32;;
6249;SDS011;3158;52.148;11.568;2023-08-30T11:22:14;0.52;;;0.38;;
6249;SDS011;3158;52.148;11.568;2023-08-30T11:27:17;0.28;;;0.28;;
6249;SDS011;3158;52.148;11.568;2023-08-30T11:32:19;0.30;;;0.30;;
6249;SDS011;3158;52.148;11.568;2023-08-30T11:37:20;1.20;;;0.30;;
6249;SDS011;3158;52.148;11.568;2023-08-30T11:42:21;0.25;;;0.25;;
6249;SDS011;3158;52.148;11.568;2023-08-30T11:47:23;0.40;;;0.40;;
6249;SDS011;3158;52.148;11.568;2023-08-30T11:52:24;1.23;;;0.30;;
6249;SDS011;3158;52.148;11.568;2023-08-30T11:57:26;0.50;;;0.28;;
6249;SDS011;3158;52.148;11.568;2023-08-30T12:02:27;0.77;;;0.20;;
6249;SDS011;3158;52.148;11.568;2023-08-30T12:07:29;0.30;;;0.30;;
6249;SDS011;3158;52.148;11.568;2023-08-30T12:12:31;0.30;;;0.30;;
6249;SDS011;3158;52.148;11.568;2023-08-30T12:17:32;0.40;;;0.40;;
6249;SDS011;3158;52.148;11.568;2023-08-30T12:22:37;0.30;;;0.30;;
6249;SDS011;3158;52.148;11.568;2023-08-30T12:27:39;0.40;;;0.40;;
6249;SDS011;3158;52.148;11.568;2023-08-30T12:32:40;1.27;;;0.52;;
6249;SDS011;3158;52.148;11.568;2023-08-30T12:37:41;1.65;;;0.30;;
6249;SDS011;3158;52.148;11.568;2023-08-30T12:42:42;0.30;;;0.30;;
6249;SDS011;3158;52.148;11.568;2023-08-30T12:47:43;0.40;;;0.38;;
6249;SDS011;3158;52.148;11.568;2023-08-30T12:52:45;0.30;;;0.30;;
6249;SDS011;3158;52.148;11.568;2023-08-30T12:57:46;0.25;;;0.25;;
6249;SDS011;3158;52.148;11.568;2023-08-30T13:02:47;0.20;;;0.20;;
6249;SDS011;3158;52.148;11.568;2023-08-30T13:07:48;0.40;;;0.40;;
6249;SDS011;3158;52.148;11.568;2023-08-30T13:12:49;0.22;;;0.22;;
6249;SDS011;3158;52.148;11.568;2023-08-30T13:17:50;0.30;;;0.30;;
6249;SDS011;3158;52.148;11.568;2023-08-30T13:22:52;0.30;;;0.30;;
6249;SDS011;3158;52.148;11.568;2023-08-30T13:27:53;0.25;;;0.25;;
6249;SDS011;3158;52.148;11.568;2023-08-30T13:32:54;0.30;;;0.30;;
6249;SDS011;3158;52.148;11.568;2023-08-30T13:37:55;0.98;;;0.20;;
6249;SDS011;3158;52.148;11.568;2023-08-30T13:42:56;0.20;;;0.20;;
6249;SDS011;3158;52.148;11.568;2023-08-30T13:47:57;0.30;;;0.30;;
6249;SDS011;3158;52.148;11.568;2023-08-30T13:52:59;0.47;;;0.20;;
6249;SDS011;3158;52.148;11.568;2023-08-30T13:58:00;0.25;;;0.25;;
6249;SDS011;3158;52.148;11.568;2023-08-30T14:03:02;0.25;;;0.20;;
6249;SDS011;3158;52.148;11.568;2023-08-30T14:08:03;0.28;;;0.28;;
6249;SDS011;3158;52.148;11.568;2023-08-30T14:13:04;0.63;;;0.38;;
6249;SDS011;3158;52.148;11.568;2023-08-30T14:18:06;0.30;;;0.30;;
6249;SDS011;3158;52.148;11.568;2023-08-30T14:23:07;0.25;;;0.25;;
6249;SDS011;3158;52.148;11.568;2023-08-30T14:28:08;0.55;;;0.30;;
6249;SDS011;3158;52.148;11.568;2023-08-30T14:33:09;0.20;;;0.20;;
6249;SDS011;3158;52.148;11.568;2023-08-30T14:38:11;0.30;;;0.30;;
6249;SDS011;3158;52.148;11.568;2023-08-30T14:43:12;0.70;;;0.30;;
6249;SDS011;3158;52.148;11.568;2023-08-30T14:48:13;0.30;;;0.30;;
6249;SDS011;3158;52.148;11.568;2023-08-30T14:53:14;0.30;;;0.30;;
6249;SDS011;3158;52.148;11.568;2023-08-30T14:58:15;0.30;;;0.30;;
6249;SDS011;3158;52.148;11.568;2023-08-30T15:03:16;0.47;;;0.40;;
6249;SDS011;3158;52.148;11.568;2023-08-30T15:08:17;0.35;;;0.30;;
6249;SDS011;3158;52.148;11.568;2023-08-30T15:13:19;0.30;;;0.30;;
6249;SDS011;3158;52.148;11.568;2023-08-30T15:18:20;1.40;;;0.50;;
6249;SDS011;3158;52.148;11.568;2023-08-30T15:23:21;2.15;;;0.30;;
6249;SDS011;3158;52.148;11.568;2023-08-30T15:28:22;0.30;;;0.30;;
6249;SDS011;3158;52.148;11.568;2023-08-30T15:33:23;0.40;;;0.40;;
6249;SDS011;3158;52.148;11.568;2023-08-30T15:38:24;0.50;;;0.50;;
6249;SDS011;3158;52.148;11.568;2023-08-30T15:43:25;0.50;;;0.50;;
6249;SDS011;3158;52.148;11.568;2023-08-30T15:48:27;0.85;;;0.85;;
6249;SDS011;3158;52.148;11.568;2023-08-30T15:53:28;0.70;;;0.63;;
6249;SDS011;3158;52.148;11.568;2023-08-30T15:58:29;2.15;;;0.60;;
6249;SDS011;3158;52.148;11.568;2023-08-30T16:03:30;0.60;;;0.60;;
6249;SDS011;3158;52.148;11.568;2023-08-30T16:08:31;0.80;;;0.80;;
6249;SDS011;3158;52.148;11.568;2023-08-30T16:13:33;0.60;;;0.60;;
6249;SDS011;3158;52.148;11.568;2023-08-30T16:18:34;1.00;;;1.00;;
6249;SDS011;3158;52.148;11.568;2023-08-30T16:23:35;1.00;;;1.00;;
6249;SDS011;3158;52.148;11.568;2023-08-30T16:28:36;0.90;;;0.90;;
6249;SDS011;3158;52.148;11.568;2023-08-30T16:33:37;0.80;;;0.80;;
6249;SDS011;3158;52.148;11.568;2023-08-30T16:38:39;0.80;;;0.80;;
6249;SDS011;3158;52.148;11.568;2023-08-30T16:43:40;0.77;;;0.75;;
6249;SDS011;3158;52.148;11.568;2023-08-30T16:48:41;0.93;;;0.93;;
6249;SDS011;3158;52.148;11.568;2023-08-30T16:53:42;0.70;;;0.70;;
6249;SDS011;3158;52.148;11.568;2023-08-30T16:58:43;0.80;;;0.80;;
6249;SDS011;3158;52.148;11.568;2023-08-30T17:03:44;0.82;;;0.82;;
6249;SDS011;3158;52.148;11.568;2023-08-30T17:08:45;0.95;;;0.95;;
6249;SDS011;3158;52.148;11.568;2023-08-30T17:13:48;0.82;;;0.80;;
6249;SDS011;3158;52.148;11.568;2023-08-30T17:18:49;1.17;;;1.17;;
6249;SDS011;3158;52.148;11.568;2023-08-30T17:23:50;0.85;;;0.85;;
6249;SDS011;3158;52.148;11.568;2023-08-30T17:28:51;1.00;;;1.00;;
6249;SDS011;3158;52.148;11.568;2023-08-30T17:33:52;0.98;;;0.98;;
6249;SDS011;3158;52.148;11.568;2023-08-30T17:38:54;0.95;;;0.95;;
6249;SDS011;3158;52.148;11.568;2023-08-30T17:43:55;0.80;;;0.80;;
6249;SDS011;3158;52.148;11.568;2023-08-30T17:48:56;1.17;;;1.17;;
6249;SDS011;3158;52.148;11.568;2023-08-30T17:53:57;1.02;;;1.02;;
6249;SDS011;3158;52.148;11.568;2023-08-30T17:58:58;1.10;;;1.10;;
6249;SDS011;3158;52.148;11.568;2023-08-30T18:03:59;0.70;;;0.70;;
6249;SDS011;3158;52.148;11.568;2023-08-30T18:09:01;1.05;;;1.02;;
6249;SDS011;3158;52.148;11.568;2023-08-30T18:14:02;1.00;;;1.00;;
6249;SDS011;3158;52.148;11.568;2023-08-30T18:19:03;0.90;;;0.90;;
6249;SDS011;3158;52.148;11.568;2023-08-30T18:24:17;1.08;;;1.08;;
6249;SDS011;3158;52.148;11.568;2023-08-30T18:29:19;1.15;;;0.82;;
6249;SDS011;3158;52.148;11.568;2023-08-30T18:34:21;1.40;;;1.30;;
6249;SDS011;3158;52.148;11.568;2023-08-30T18:39:22;1.05;;;1.00;;
6249;SDS011;3158;52.148;11.568;2023-08-30T18:44:23;0.80;;;0.80;;
6249;SDS011;3158;52.148;11.568;2023-08-30T18:49:24;3.13;;;1.23;;
6249;SDS011;3158;52.148;11.568;2023-08-30T18:54:25;0.90;;;0.90;;
6249;SDS011;3158;52.148;11.568;2023-08-30T18:59:27;1.02;;;1.02;;
6249;SDS011;3158;52.148;11.568;2023-08-30T19:04:29;2.05;;;1.95;;
6249;SDS011;3158;52.148;11.568;2023-08-30T19:09:32;2.28;;;2.00;;
6249;SDS011;3158;52.148;11.568;2023-08-30T19:14:33;1.90;;;1.80;;
6249;SDS011;3158;52.148;11.568;2023-08-30T19:19:34;1.13;;;1.13;;
6249;SDS011;3158;52.148;11.568;2023-08-30T19:24:36;1.17;;;1.17;;
6249;SDS011;3158;52.148;11.568;2023-08-30T19:29:37;1.33;;;1.25;;
6249;SDS011;3158;52.148;11.568;2023-08-30T19:34:38;2.80;;;2.58;;
6249;SDS011;3158;52.148;11.568;2023-08-30T19:39:39;2.15;;;1.65;;
6249;SDS011;3158;52.148;11.568;2023-08-30T19:44:40;2.00;;;1.90;;
6249;SDS011;3158;52.148;11.568;2023-08-30T19:49:41;2.22;;;1.65;;
6249;SDS011;3158;52.148;11.568;2023-08-30T19:54:44;1.27;;;1.27;;
6249;SDS011;3158;52.148;11.568;2023-08-30T19:59:46;1.80;;;1.70;;
6249;SDS011;3158;52.148;11.568;2023-08-30T20:04:47;1.65;;;1.55;;
6249;SDS011;3158;52.148;11.568;2023-08-30T20:09:48;2.15;;;1.95;;
6249;SDS011;3158;52.148;11.568;2023-08-30T20:14:49;2.53;;;2.42;;
6249;SDS011;3158;52.148;11.568;2023-08-30T20:19:51;2.80;;;2.60;;
6249;SDS011;3158;52.148;11.568;2023-08-30T20:24:53;2.95;;;2.80;;
6249;SDS011;3158;52.148;11.568;2023-08-30T20:29:56;1.40;;;1.40;;
6249;SDS011;3158;52.148;11.568;2023-08-30T20:34:57;0.60;;;0.60;;
6249;SDS011;3158;52.148;11.568;2023-08-30T20:39:58;0.60;;;0.60;;
6249;SDS011;3158;52.148;11.568;2023-08-30T20:45:00;0.30;;;0.30;;
6249;SDS011;3158;52.148;11.568;2023-08-30T20:50:03;0.30;;;0.30;;
6249;SDS011;3158;52.148;11.568;2023-08-30T20:55:05;0.20;;;0.20;;
6249;SDS011;3158;52.148;11.568;2023-08-30T21:00:06;2.20;;;0.40;;
6249;SDS011;3158;52.148;11.568;2023-08-30T21:05:10;2.17;;;0.20;;
6249;SDS011;3158;52.148;11.568;2023-08-30T21:10:11;0.20;;;0.20;;
6249;SDS011;3158;52.148;11.568;2023-08-30T21:15:12;0.17;;;0.17;;
6249;SDS011;3158;52.148;11.568;2023-08-30T21:20:13;0.35;;;0.20;;
6249;SDS011;3158;52.148;11.568;2023-08-30T21:25:15;0.43;;;0.38;;
6249;SDS011;3158;52.148;11.568;2023-08-30T21:30:16;0.30;;;0.30;;
6249;SDS011;3158;52.148;11.568;2023-08-30T21:35:17;0.32;;;0.30;;
6249;SDS011;3158;52.148;11.568;2023-08-30T21:40:18;0.75;;;0.40;;
6249;SDS011;3158;52.148;11.568;2023-08-30T21:45:19;0.20;;;0.20;;
6249;SDS011;3158;52.148;11.568;2023-08-30T21:50:20;0.30;;;0.30;;
6249;SDS011;3158;52.148;11.568;2023-08-30T21:55:21;2.10;;;0.28;;
6249;SDS011;3158;52.148;11.568;2023-08-30T22:00:23;0.20;;;0.20;;
6249;SDS011;3158;52.148;11.568;2023-08-30T22:05:24;0.20;;;0.20;;
6249;SDS011;3158;52.148;11.568;2023-08-30T22:10:25;0.20;;;0.20;;
6249;SDS011;3158;52.148;11.568;2023-08-30T22:15:26;0.30;;;0.30;;
6249;SDS011;3158;52.148;11.568;2023-08-30T22:20:27;0.20;;;0.20;;
6249;SDS011;3158;52.148;11.568;2023-08-30T22:25:28;0.25;;;0.25;;
6249;SDS011;3158;52.148;11.568;2023-08-30T22:30:30;0.30;;;0.30;;
6249;SDS011;3158;52.148;11.568;2023-08-30T22:35:32;0.90;;;0.45;;
6249;SDS011;3158;52.148;11.568;2023-08-30T22:40:33;0.40;;;0.40;;
6249;SDS011;3158;52.148;11.568;2023-08-30T22:45:34;0.55;;;0.55;;
6249;SDS011;3158;52.148;11.568;2023-08-30T22:50:35;0.40;;;0.40;;
6249;SDS011;3158;52.148;11.568;2023-08-30T22:55:36;0.40;;;0.40;;
6249;SDS011;3158;52.148;11.568;2023-08-30T23:00:37;0.20;;;0.20;;
6249;SDS011;3158;52.148;11.568;2023-08-30T23:05:39;0.40;;;0.40;;
6249;SDS011;3158;52.148;11.568;2023-08-30T23:10:41;0.40;;;0.40;;
6249;SDS011;3158;52.148;11.568;2023-08-30T23:15:43;0.50;;;0.50;;
6249;SDS011;3158;52.148;11.568;2023-08-30T23:20:44;0.60;;;0.60;;
6249;SDS011;3158;52.148;11.568;2023-08-30T23:25:46;0.63;;;0.63;;
6249;SDS011;3158;52.148;11.568;2023-08-30T23:30:47;0.65;;;0.35;;
6249;SDS011;3158;52.148;11.568;2023-08-30T23:35:48;0.75;;;0.40;;
6249;SDS011;3158;52.148;11.568;2023-08-30T23:40:49;0.70;;;0.50;;
6249;SDS011;3158;52.148;11.568;2023-08-30T23:45:50;0.32;;;0.32;;
6249;SDS011;3158;52.148;11.568;2023-08-30T23:50:52;0.40;;;0.40;;
6249;SDS011;3158;52.148;11.568;2023-08-30T23:55:53;0.40;;;0.40;;
